createdAt,value
2018-11-22T00:16:41.029Z,19.80
2018-11-22T00:29:48.214Z,19.80
2018-11-22T01:09:00.564Z,19.70
2018-11-22T01:22:07.737Z,19.70
2018-11-22T01:35:15.071Z,19.70
2018-11-22T01:48:22.226Z,19.70
2018-11-22T02:01:29.416Z,19.70
2018-11-22T02:14:36.558Z,19.70
2018-11-22T02:27:43.753Z,19.70
2018-11-22T02:40:50.932Z,19.70
2018-11-22T02:53:58.088Z,19.70
2018-11-22T03:07:05.271Z,19.70
2018-11-22T03:20:12.374Z,19.70
2018-11-22T03:33:19.579Z,19.70
2018-11-22T03:46:26.749Z,19.60
2018-11-22T03:59:33.910Z,19.60
2018-11-22T04:38:46.553Z,19.60
2018-11-22T04:51:53.712Z,19.60
2018-11-22T05:05:00.908Z,19.60
2018-11-22T05:18:08.057Z,19.60
2018-11-22T05:31:15.185Z,19.60
2018-11-22T05:44:22.334Z,19.60
2018-11-22T05:57:29.522Z,19.60
2018-11-22T06:10:36.704Z,19.60
2018-11-22T06:23:44.441Z,18.60
2018-11-22T06:36:51.025Z,18.80
2018-11-22T06:49:58.214Z,19.30
2018-11-22T07:16:07.879Z,20.10
2018-11-22T07:29:15.026Z,20.20
2018-11-22T08:08:27.439Z,20.20
2018-11-22T08:21:38.200Z,20.20
2018-11-22T08:34:42.040Z,20.20
2018-11-22T08:54:52.876Z,20.20
2018-11-22T09:17:37.891Z,20.20
2018-11-22T09:30:45.106Z,20.10
2018-11-22T10:24:36.163Z,20.10
2018-11-22T10:37:44.075Z,20.20
2018-11-22T10:52:23.219Z,20.10
2018-11-22T11:05:30.425Z,20.10
2018-11-22T11:31:40.170Z,20.10
2018-11-22T11:44:47.327Z,20.10
2018-11-22T12:10:57.458Z,20.20
2018-11-22T12:54:57.831Z,20.10
2018-11-22T13:08:04.975Z,20.10
2018-11-22T13:21:12.157Z,20.00
2018-11-22T13:34:19.537Z,20.00
2018-11-22T13:47:26.700Z,20.00
2018-11-22T14:00:33.928Z,20.00
2018-11-22T14:13:41.395Z,20.00
2018-11-22T14:26:48.577Z,19.90
2018-11-22T14:39:55.806Z,19.90
2018-11-22T14:53:03.083Z,19.90
2018-11-22T15:32:15.533Z,19.90
2018-11-22T15:58:25.326Z,19.80
2018-11-22T16:11:32.468Z,19.80
2018-11-22T16:24:39.655Z,19.80
2018-11-22T16:37:46.905Z,19.80
2018-11-22T16:50:54.203Z,19.80
2018-11-22T17:04:01.377Z,19.80
2018-11-22T17:17:08.559Z,19.80
2018-11-22T17:30:15.705Z,19.70
2018-11-22T17:43:22.856Z,19.70
2018-11-22T17:56:30.129Z,19.70
2018-11-22T18:09:37.273Z,19.70
2018-11-22T18:22:44.477Z,19.70
2018-11-22T18:35:51.752Z,19.80
2018-11-22T18:48:58.920Z,19.80
2018-11-22T19:02:06.074Z,19.70
2018-11-22T19:41:18.789Z,19.60
2018-11-22T19:54:25.953Z,19.70
2018-11-22T20:07:33.152Z,19.70
2018-11-22T20:20:40.374Z,19.70
2018-11-22T20:33:47.576Z,19.70
2018-11-22T20:46:54.769Z,19.70
2018-11-22T21:00:01.965Z,19.70
2018-11-22T21:13:09.154Z,19.70
2018-11-22T21:26:16.299Z,19.80
2018-11-22T21:39:23.444Z,19.70
2018-11-22T21:52:30.608Z,19.70
2018-11-22T22:05:37.786Z,19.80
2018-11-22T22:18:45.126Z,19.80
2018-11-22T22:31:52.289Z,19.80
2018-11-22T22:44:59.496Z,19.80
2018-11-22T22:58:06.691Z,19.80
2018-11-22T23:11:13.847Z,19.80
2018-11-22T23:24:21.107Z,19.90
2018-11-22T23:37:28.305Z,19.90
2018-11-22T23:50:35.464Z,19.90
